Time;durP1;ratioP1;P1;durP2;ratioP2;P2;SDS_P1;SDS_P2;PMS_P1;PMS_P2;Temp;Humidity;BMP_temperature;BMP_pressure;BME280_temperature;BME280_humidity;BME280_pressure;Samples;Min_cycle;Max_cycle;Signal;HPM_P1;HPM_P2
2022/09/14 00:00:49;;;;;;;7.05;2.22;;;;;;;;;;5035741;28;20049;-77
2022/09/14 00:03:15;;;;;;;6.20;1.92;;;;;;;;;;5035470;28;20045;-78
2022/09/14 00:05:40;;;;;;;12.75;2.50;;;;;;;14.59;94.19;68394.56;5034801;28;20048;-78
2022/09/14 00:08:06;;;;;;;6.57;2.33;;;;;;;14.59;94.24;68389.19;5035996;28;20041;-79
2022/09/14 00:10:32;;;;;;;5.63;2.20;;;;;;;14.59;94.63;68389.19;5034630;28;20037;-77
2022/09/14 00:12:59;;;;;;;7.50;2.60;;;;;;;14.55;94.63;68382.50;5035603;28;20112;-79
2022/09/14 00:15:24;;;;;;;11.02;2.78;;;;;;;14.55;94.50;68381.94;5035055;28;20072;-78
2022/09/14 00:17:50;;;;;;;6.80;2.40;;;;;;;14.56;94.45;68386.34;5035254;28;20053;-78
2022/09/14 00:20:15;;;;;;;6.53;2.17;;;;;;;14.54;94.57;68389.41;5035482;28;20037;-80
2022/09/14 00:22:41;;;;;;;10.98;2.88;;;;;;;14.54;94.98;68384.06;5035090;28;20116;-79
2022/09/14 00:25:06;;;;;;;9.43;2.42;;;;;;;14.55;94.88;68381.94;5034404;28;20508;-79
2022/09/14 00:27:32;;;;;;;7.45;2.70;;;;;;;14.54;94.49;68384.06;5033973;28;20037;-77
2022/09/14 00:29:57;;;;;;;6.80;2.50;;;;;;;;;;5031392;28;20040;-79
2022/09/14 00:32:23;;;;;;;6.32;2.22;;;;;;;14.54;95.33;68383.50;5034970;28;20041;-77
2022/09/14 00:34:48;;;;;;;5.55;2.25;;;;;;;;;;5032179;28;20096;-78
2022/09/14 00:37:13;;;;;;;6.47;2.50;;;;;;;14.51;94.83;68380.63;5032219;28;20045;-78
2022/09/14 00:39:39;;;;;;;6.30;2.20;;;;;;;14.47;95.60;68381.41;5036252;28;20276;-78
2022/09/14 00:42:05;;;;;;;9.20;3.53;;;;;;;14.42;95.40;68370.38;5034448;28;20045;-78
2022/09/14 00:44:30;;;;;;;6.28;2.88;;;;;;;;;;5031833;28;20073;-78
2022/09/14 00:46:57;;;;;;;6.57;3.47;;;;;;;;;;5033563;28;20050;-78
2022/09/14 00:49:30;;;;;;;7.30;3.40;;;;;;;14.42;96.08;68370.94;5042416;28;20278;-79
2022/09/14 00:52:02;;;;;;;9.48;2.88;;;;;;;;;;5038901;28;20676;-77
2022/09/14 00:54:28;;;;;;;6.72;2.65;;;;;;;14.35;96.14;68362.41;5023873;28;20049;-77
2022/09/14 00:56:58;;;;;;;8.63;3.10;;;;;;;14.30;96.59;68356.72;5050329;22;20080;-83
2022/09/14 00:59:23;;;;;;;;;;;;;;;;;;5032297;28;20038;-83
2022/09/14 01:01:49;;;;;;;8.18;2.30;;;;;;;14.15;98.29;68340.78;5030441;28;19917;-82
2022/09/14 01:04:14;;;;;;;7.88;2.33;;;;;;;;;;5028127;28;20064;-82
2022/09/14 01:06:46;;;;;;;6.03;2.40;;;;;;;;;;5028884;28;20396;-82
2022/09/14 01:09:11;;;;;;;8.10;2.45;;;;;;;;;;5025348;28;20049;-82
2022/09/14 01:11:42;;;;;;;7.67;2.23;;;;;;;14.04;99.61;68327.69;5030758;28;20061;-82
2022/09/14 01:14:07;;;;;;;7.72;2.38;;;;;;;;;;5032989;28;20749;-82
2022/09/14 01:16:36;;;;;;;6.55;2.13;;;;;;;;;;5030496;28;20068;-82
2022/09/14 01:19:17;;;;;;;8.13;2.50;;;;;;;14.13;98.69;68337.94;5032371;28;20041;-82
2022/09/14 01:21:43;;;;;;;8.25;2.58;;;;;;;14.14;98.80;68339.09;5031528;28;20038;-82
2022/09/14 01:24:29;;;;;;;6.72;2.70;;;;;;;;;;5032950;28;20025;-82
2022/09/14 01:26:57;;;;;;;11.25;2.63;;;;;;;;;;5009991;28;20129;-82
2022/09/14 01:29:25;;;;;;;6.13;1.97;;;;;;;14.17;98.06;68342.50;5031229;28;20325;-82
2022/09/14 01:31:58;;;;;;;5.47;2.30;;;;;;;14.15;98.90;68345.56;5030974;28;20077;-82
2022/09/14 01:34:56;;;;;;;6.90;2.55;;;;;;;14.15;99.23;68345.56;5033138;28;20072;-82
2022/09/14 01:37:29;;;;;;;6.90;2.55;;;;;;;14.11;99.81;68335.66;5013094;28;20049;-82
2022/09/14 01:40:02;;;;;;;7.45;2.53;;;;;;;14.10;99.44;68334.53;5027989;28;20050;-82
2022/09/14 01:42:28;;;;;;;7.28;2.78;;;;;;;14.08;99.45;68332.81;5033506;28;20037;-82
2022/09/14 01:44:58;;;;;;;5.43;2.85;;;;;;;14.04;99.59;68333.03;5031841;28;20037;-82
2022/09/14 01:47:25;;;;;;;9.52;3.17;;;;;;;14.02;99.43;68326.00;5032931;28;20068;-82
2022/09/14 01:49:56;;;;;;;5.88;2.70;;;;;;;13.97;100.00;68320.88;5031920;28;20076;-82
2022/09/14 01:52:27;;;;;;;7.63;2.97;;;;;;;13.93;100.00;68321.69;5031852;28;20555;-82
2022/09/14 01:54:56;;;;;;;6.20;2.80;;;;;;;;;;5030529;28;20275;-83
2022/09/14 01:57:31;;;;;;;7.85;3.03;;;;;;;13.91;100.00;68318.84;5028825;28;20050;-82
2022/09/14 02:00:01;;;;;;;7.65;2.70;;;;;;;13.92;100.00;68314.59;5028160;28;20064;-84
2022/09/14 02:02:32;;;;;;;4.97;2.80;;;;;;;13.91;100.00;68318.84;5027119;28;20041;-83
2022/09/14 02:05:12;;;;;;;5.65;2.95;;;;;;;;;;5032037;28;20038;-83
2022/09/14 02:07:37;;;;;;;10.57;2.90;;;;;;;;;;5030754;28;20041;-83
2022/09/14 02:10:10;;;;;;;5.55;2.53;;;;;;;13.93;99.99;68321.13;5028676;28;20106;-83
2022/09/14 02:12:35;;;;;;;6.78;3.08;;;;;;;;;;5028131;28;20068;-81
2022/09/14 02:15:01;;;;;;;7.38;2.78;;;;;;;;;;5026972;28;20481;-81
2022/09/14 02:17:28;;;;;;;8.80;3.20;;;;;;;13.95;99.27;68323.97;5029843;28;20041;-80
2022/09/14 02:19:59;;;;;;;7.63;3.00;;;;;;;13.96;99.73;68319.75;5032201;28;20041;-81
2022/09/14 02:22:27;;;;;;;9.70;3.10;;;;;;;14.00;99.32;68323.72;5031016;28;20051;-81
2022/09/14 02:24:53;;;;;;;7.40;4.07;;;;;;;14.01;99.51;68324.84;5033390;28;20041;-81
2022/09/14 02:27:19;;;;;;;9.63;3.22;;;;;;;14.01;99.63;68324.84;5026354;28;20041;-81
2022/09/14 02:29:45;;;;;;;8.85;3.13;;;;;;;13.99;99.60;68322.59;5043400;28;20500;-80
2022/09/14 02:32:19;;;;;;;11.02;3.20;;;;;;;;;;5030649;28;20053;-81
2022/09/14 02:35:03;;;;;;;9.23;3.05;;;;;;;14.00;100.00;68329.06;5028346;28;20044;-81
2022/09/14 02:37:51;;;;;;;6.95;2.90;;;;;;;14.02;100.00;68326.00;5028715;28;20080;-80
2022/09/14 02:40:25;;;;;;;5.85;3.13;;;;;;;;;;5025225;28;20041;-81
2022/09/14 02:42:53;;;;;;;8.85;3.28;;;;;;;;;;5023136;28;20419;-80
2022/09/14 02:45:31;;;;;;;8.68;2.97;;;;;;;;;;5031288;28;20041;-80
2022/09/14 02:48:18;;;;;;;9.20;3.83;;;;;;;13.91;100.00;68318.84;4997014;28;20228;-80
2022/09/14 02:50:56;;;;;;;9.77;3.72;;;;;;;;;;5031035;28;20076;-81
2022/09/14 02:53:29;;;;;;;7.50;3.30;;;;;;;;;;5026949;28;20128;-81
2022/09/14 02:56:01;;;;;;;7.50;3.92;;;;;;;13.89;100.00;68317.13;5030589;28;20052;-81
2022/09/14 02:58:33;;;;;;;6.63;3.30;;;;;;;;;;5029627;28;20041;-80
2022/09/14 03:00:58;;;;;;;6.03;3.45;;;;;;;13.90;100.00;68318.25;5030323;28;20041;-80
2022/09/14 03:03:23;;;;;;;10.80;3.75;;;;;;;13.90;100.00;68317.69;5030446;28;20048;-80
2022/09/14 03:05:48;;;;;;;11.93;3.47;;;;;;;;;;5028316;28;20042;-81
2022/09/14 03:08:14;;;;;;;7.17;3.20;;;;;;;13.93;100.00;68316.31;5036538;28;20045;-81
2022/09/14 03:10:41;;;;;;;9.35;3.42;;;;;;;;;;5033124;28;20287;-81
2022/09/14 03:13:06;;;;;;;8.27;3.30;;;;;;;13.88;100.00;68310.63;5034934;28;20500;-81
2022/09/14 03:15:32;;;;;;;7.85;3.33;;;;;;;;;;5019907;28;20061;-81
2022/09/14 03:17:57;;;;;;;10.15;3.30;;;;;;;13.91;100.00;68313.47;5028267;28;20045;-80
2022/09/14 03:20:25;;;;;;;7.15;3.33;;;;;;;13.91;100.00;68319.41;5030959;28;20041;-80
2022/09/14 03:22:51;;;;;;;11.05;3.60;;;;;;;13.87;100.00;68308.94;5035578;28;20038;-80
2022/09/14 03:25:18;;;;;;;8.80;3.47;;;;;;;13.88;100.00;68315.41;5035603;28;20455;-81
2022/09/14 03:27:48;;;;;;;9.85;3.65;;;;;;;13.86;100.00;68307.78;5034625;28;20049;-81
2022/09/14 03:30:13;;;;;;;8.48;3.47;;;;;;;13.90;100.00;68312.34;5036196;28;20037;-80
2022/09/14 03:32:38;;;;;;;10.48;3.78;;;;;;;;;;5031345;28;20041;-81
2022/09/14 03:35:04;;;;;;;7.87;3.33;;;;;;;13.93;100.00;68323.78;5035214;28;20060;-81
2022/09/14 03:37:30;;;;;;;7.25;3.75;;;;;;;;;;5030412;28;20395;-81
2022/09/14 03:39:55;;;;;;;7.72;3.50;;;;;;;13.91;100.00;68318.84;5030888;28;20060;-80
2022/09/14 03:42:20;;;;;;;9.27;3.40;;;;;;;13.91;100.00;68308.13;5017315;28;20065;-81
2022/09/14 03:44:46;;;;;;;10.27;3.90;;;;;;;13.88;100.00;68307.41;5030529;28;20448;-80
2022/09/14 03:47:11;;;;;;;11.07;4.40;;;;;;;13.89;100.00;68308.53;5027293;28;20513;-82
2022/09/14 03:49:36;;;;;;;7.22;3.40;;;;;;;13.87;100.00;68314.28;5030714;28;20056;-81
2022/09/14 03:52:03;;;;;;;11.95;4.00;;;;;;;;;;5025922;28;20038;-81
2022/09/14 03:54:28;;;;;;;10.07;4.53;;;;;;;13.90;100.00;68312.34;5024711;28;20053;-81
2022/09/14 03:56:53;;;;;;;6.13;3.60;;;;;;;;;;5031038;28;20052;-83
2022/09/14 03:59:20;;;;;;;8.10;3.83;;;;;;;13.85;100.00;68312.00;5030233;28;20052;-83
2022/09/14 04:01:45;;;;;;;7.55;3.88;;;;;;;;;;5029435;28;20790;-81
2022/09/14 04:04:11;;;;;;;7.00;3.67;;;;;;;13.87;100.00;68314.28;5032569;28;20041;-81
2022/09/14 04:06:36;;;;;;;8.45;3.63;;;;;;;13.86;100.00;68313.13;5027268;28;20042;-81
2022/09/14 04:09:02;;;;;;;7.95;4.00;;;;;;;13.84;100.00;68313.53;5028072;28;20044;-81
2022/09/14 04:11:30;;;;;;;10.07;4.03;;;;;;;13.89;100.00;68311.19;5031090;28;20097;-81
2022/09/14 04:14:00;;;;;;;8.90;4.03;;;;;;;13.85;100.00;68303.97;5031454;28;20053;-81
2022/09/14 04:16:26;;;;;;;9.20;3.97;;;;;;;13.84;100.00;68310.84;5033068;28;20049;-81
2022/09/14 04:18:52;;;;;;;8.98;4.05;;;;;;;13.85;100.00;68312.56;5033914;28;20132;-81
2022/09/14 04:21:19;;;;;;;11.10;4.40;;;;;;;13.88;100.00;68315.41;5031838;28;20471;-81
2022/09/14 04:23:45;;;;;;;8.57;3.70;;;;;;;13.86;100.00;68305.13;5028901;28;20403;-82
2022/09/14 04:26:12;;;;;;;8.90;4.10;;;;;;;13.82;100.00;68308.59;5032487;28;20045;-80
2022/09/14 04:28:38;;;;;;;9.05;4.15;;;;;;;;;;5032147;28;20046;-80
2022/09/14 04:31:04;;;;;;;11.23;4.38;;;;;;;13.89;100.00;68311.75;5030608;28;20072;-80
2022/09/14 04:33:30;;;;;;;8.15;4.63;;;;;;;;;;5026988;28;20052;-81
2022/09/14 04:35:58;;;;;;;8.80;4.50;;;;;;;13.86;100.00;68307.78;5031999;28;20052;-81
2022/09/14 04:38:23;;;;;;;9.65;4.85;;;;;;;;;;5029931;28;20038;-81
2022/09/14 04:40:49;;;;;;;9.73;4.68;;;;;;;13.88;100.00;68310.63;5028348;28;20076;-81
2022/09/14 04:43:14;;;;;;;11.75;5.10;;;;;;;;;;5032358;28;20033;-81
2022/09/14 04:45:39;;;;;;;10.38;5.07;;;;;;;13.92;100.00;68314.59;5033610;28;20045;-81
2022/09/14 04:48:05;;;;;;;9.80;4.75;;;;;;;13.85;100.00;68312.56;5033476;28;20041;-81
2022/09/14 04:50:31;;;;;;;8.80;4.50;;;;;;;13.83;100.00;68309.72;5034847;28;20037;-81
2022/09/14 04:52:56;;;;;;;11.20;5.13;;;;;;;13.79;100.00;68305.19;5034282;28;20291;-81
2022/09/14 04:55:23;;;;;;;12.43;5.25;;;;;;;;;;5028716;28;20045;-81
2022/09/14 04:57:48;;;;;;;15.80;5.28;;;;;;;;;;5032777;28;20072;-81
2022/09/14 05:00:13;;;;;;;9.65;5.18;;;;;;;;;;5029726;28;20496;-81
2022/09/14 05:02:40;;;;;;;11.95;4.90;;;;;;;13.61;100.00;68277.22;5031353;28;20311;-80
2022/09/14 05:05:05;;;;;;;13.52;5.25;;;;;;;13.64;100.00;68283.34;5034295;28;20041;-80
2022/09/14 05:07:31;;;;;;;8.52;5.75;;;;;;;13.79;100.00;68299.84;5033617;28;20037;-80
2022/09/14 05:09:56;;;;;;;11.43;5.40;;;;;;;13.76;100.00;68297.56;5032410;28;20045;-81
2022/09/14 05:12:22;;;;;;;9.95;6.35;;;;;;;;;;5035258;28;20361;-81
2022/09/14 05:14:47;;;;;;;10.88;5.70;;;;;;;13.82;100.00;68308.59;5032606;28;20073;-80
2022/09/14 05:17:13;;;;;;;12.27;6.32;;;;;;;13.85;100.00;68306.66;5034824;28;20045;-80
2022/09/14 05:19:38;;;;;;;11.25;6.53;;;;;;;13.81;100.00;68307.44;5023411;28;20285;-81
2022/09/14 05:22:04;;;;;;;13.18;6.10;;;;;;;13.85;100.00;68303.97;5028742;28;20057;-80
2022/09/14 05:24:29;;;;;;;11.80;5.78;;;;;;;;;;5029699;28;20033;-81
2022/09/14 05:26:54;;;;;;;12.65;6.68;;;;;;;13.90;100.00;68317.69;5026654;28;20041;-80
2022/09/14 05:29:19;;;;;;;11.35;7.03;;;;;;;13.89;100.00;68316.56;5029505;28;20042;-80
2022/09/14 05:31:45;;;;;;;11.27;6.50;;;;;;;13.83;100.00;68304.38;5031772;28;20139;-80
2022/09/14 05:34:11;;;;;;;9.35;6.22;;;;;;;13.80;100.00;68301.53;5030892;28;20085;-80
2022/09/14 05:36:37;;;;;;;12.95;6.68;;;;;;;13.80;100.00;68298.28;5029600;28;20049;-80
2022/09/14 05:39:04;;;;;;;13.27;7.07;;;;;;;13.79;100.00;68299.84;5034857;28;20108;-80
2022/09/14 05:41:29;;;;;;;10.75;7.53;;;;;;;13.71;100.00;68291.84;5029993;28;20097;-80
2022/09/14 05:43:55;;;;;;;17.27;8.23;;;;;;;13.72;100.00;68298.34;5035266;28;20061;-80
2022/09/14 05:46:21;;;;;;;16.85;7.93;;;;;;;13.67;100.00;68292.09;5029373;28;20083;-80
2022/09/14 05:48:47;;;;;;;12.98;7.85;;;;;;;13.68;100.00;68293.22;5028289;28;20048;-80
2022/09/14 05:51:18;;;;;;;13.98;7.97;;;;;;;13.64;100.00;68289.25;5031656;28;20033;-80
2022/09/14 05:53:47;;;;;;;14.57;8.40;;;;;;;;;;5030980;28;20049;-80
2022/09/14 05:56:12;;;;;;;13.57;7.68;;;;;;;;;;5031822;28;20045;-80
2022/09/14 05:58:39;;;;;;;15.52;8.38;;;;;;;13.61;100.00;68285.84;5031975;28;20043;-80
2022/09/14 06:01:20;;;;;;;12.85;7.88;;;;;;;13.57;100.00;68275.94;5032236;28;20045;-80
2022/09/14 06:03:46;;;;;;;15.32;8.70;;;;;;;13.52;100.00;68275.59;5029867;28;20030;-80
2022/09/14 06:06:13;;;;;;;13.63;8.80;;;;;;;;;;5026407;28;20034;-80
2022/09/14 06:08:39;;;;;;;13.70;8.10;;;;;;;;;;5023111;28;20197;-81
2022/09/14 06:11:12;;;;;;;16.57;8.50;;;;;;;;;;5018893;28;20126;-81
2022/09/14 06:13:37;;;;;;;15.18;8.60;;;;;;;;;;5020011;28;20329;-81
2022/09/14 06:16:14;;;;;;;15.55;9.77;;;;;;;13.61;100.00;68280.50;5027622;28;20124;-81
2022/09/14 06:18:41;;;;;;;15.90;9.98;;;;;;;13.53;100.00;68271.97;5027119;28;20112;-81
2022/09/14 06:21:06;;;;;;;15.02;10.48;;;;;;;;;;5031498;28;20052;-81
2022/09/14 06:23:32;;;;;;;16.52;10.18;;;;;;;13.54;100.00;68273.09;5030760;28;20041;-81
2022/09/14 06:26:00;;;;;;;17.00;10.38;;;;;;;13.62;100.00;68281.06;5031841;28;20049;-81
2022/09/14 06:28:26;;;;;;;14.23;9.73;;;;;;;;;;5021388;28;20030;-80
2022/09/14 06:30:52;;;;;;;16.65;10.70;;;;;;;13.70;100.00;68298.19;5018943;28;20053;-80
2022/09/14 06:33:17;;;;;;;13.20;9.88;;;;;;;13.48;100.00;68265.69;5018213;28;20044;-80
2022/09/14 06:35:52;;;;;;;15.68;9.45;;;;;;;13.45;100.00;68262.28;5027982;28;20068;-80
2022/09/14 06:38:17;;;;;;;13.57;9.65;;;;;;;;;;5020997;28;20041;-80
2022/09/14 06:40:49;;;;;;;12.68;8.75;;;;;;;;;;5025140;28;20037;-80
2022/09/14 06:43:15;;;;;;;13.88;9.25;;;;;;;13.75;100.00;68301.78;5031606;28;20124;-81
2022/09/14 06:45:40;;;;;;;15.65;8.75;;;;;;;13.75;100.00;68296.41;5023999;28;20385;-81
2022/09/14 06:48:05;;;;;;;16.60;9.73;;;;;;;;;;5010601;28;20049;-81
2022/09/14 06:50:30;;;;;;;14.77;9.87;;;;;;;13.74;100.00;68303.28;5027550;28;20034;-81
2022/09/14 06:52:56;;;;;;;18.08;10.10;;;;;;;;;;5023695;28;20291;-81
2022/09/14 06:55:21;;;;;;;15.98;10.45;;;;;;;13.77;100.00;68298.13;5014279;28;20130;-81
2022/09/14 06:57:48;;;;;;;20.13;10.45;;;;;;;13.79;100.00;68300.41;5026623;28;20389;-80
2022/09/14 07:00:13;;;;;;;14.15;10.38;;;;;;;;;;5029238;28;20333;-80
2022/09/14 07:02:38;;;;;;;15.98;10.50;;;;;;;13.80;100.00;68300.97;5029530;28;20087;-80
2022/09/14 07:05:04;;;;;;;13.77;10.82;;;;;;;;;;5027829;28;20144;-80
2022/09/14 07:07:29;;;;;;;16.80;10.98;;;;;;;13.75;100.00;68295.84;5030413;28;20109;-80
2022/09/14 07:09:55;;;;;;;18.17;11.88;;;;;;;13.79;100.00;68300.41;5030604;28;20053;-81
2022/09/14 07:12:20;;;;;;;20.35;11.18;;;;;;;13.85;100.00;68307.22;5031647;28;20059;-80
2022/09/14 07:14:45;;;;;;;19.02;11.25;;;;;;;13.84;100.00;68305.50;5030550;28;20076;-81
2022/09/14 07:17:12;;;;;;;13.68;10.57;;;;;;;;;;5033096;28;20048;-80
2022/09/14 07:19:37;;;;;;;19.00;9.90;;;;;;;14.00;100.00;68323.72;5023965;28;20049;-80
2022/09/14 07:22:03;;;;;;;14.48;9.43;;;;;;;14.01;100.00;68330.19;5031662;28;20281;-80
2022/09/14 07:24:28;;;;;;;13.73;9.52;;;;;;;;;;5030519;28;20038;-80
2022/09/14 07:26:53;;;;;;;16.53;9.70;;;;;;;13.87;100.00;68309.50;5031100;28;20093;-80
2022/09/14 07:29:19;;;;;;;16.33;8.73;;;;;;;;;;5034421;28;20268;-80
2022/09/14 07:31:49;;;;;;;13.38;9.50;;;;;;;;;;5028697;28;20041;-80
2022/09/14 07:34:15;;;;;;;15.05;9.35;;;;;;;13.99;100.00;68328.50;5033678;28;20128;-80
2022/09/14 07:36:41;;;;;;;15.80;9.02;;;;;;;14.00;100.00;68329.63;5027789;28;20034;-80
2022/09/14 07:39:12;;;;;;;17.60;8.93;;;;;;;14.05;100.00;68334.75;5027345;28;20324;-80
2022/09/14 07:41:38;;;;;;;15.77;9.73;;;;;;;14.05;100.00;68329.41;5027167;28;20112;-81
2022/09/14 07:44:05;;;;;;;11.85;7.95;;;;;;;;;;5029533;28;20053;-81
2022/09/14 07:46:37;;;;;;;13.60;8.30;;;;;;;14.08;100.00;68330.16;5026904;28;20317;-81
2022/09/14 07:49:03;;;;;;;13.10;9.55;;;;;;;14.14;100.00;68336.97;5007772;28;20072;-80
2022/09/14 07:51:29;;;;;;;11.82;9.32;;;;;;;;;;5028701;28;20045;-80
2022/09/14 07:53:55;;;;;;;15.25;9.57;;;;;;;14.16;100.00;68341.38;5028205;28;20053;-80
2022/09/14 07:56:21;;;;;;;15.75;8.60;;;;;;;14.13;100.00;68346.56;5027757;28;20041;-80
2022/09/14 07:58:47;;;;;;;14.43;9.35;;;;;;;;;;5030792;28;20128;-80
2022/09/14 08:01:13;;;;;;;14.45;9.65;;;;;;;;;;5032069;28;20045;-80
2022/09/14 08:03:41;;;;;;;13.63;9.45;;;;;;;14.14;100.00;68339.66;5030724;28;20116;-80
2022/09/14 08:06:21;;;;;;;13.80;8.68;;;;;;;14.10;100.00;68343.13;5030639;28;20037;-80
2022/09/14 08:08:49;;;;;;;15.38;9.07;;;;;;;14.15;100.00;68340.22;5030058;28;20049;-80
2022/09/14 08:11:18;;;;;;;12.50;9.13;;;;;;;14.21;100.00;68352.97;5031436;28;20107;-80
2022/09/14 08:13:53;;;;;;;15.95;9.93;;;;;;;;;;5031408;28;20099;-80
2022/09/14 08:16:20;;;;;;;13.77;9.48;;;;;;;14.39;100.00;68372.34;5011414;28;20038;-80
2022/09/14 08:18:45;;;;;;;14.60;8.43;;;;;;;;;;5018813;28;20037;-80
2022/09/14 08:21:12;;;;;;;14.52;9.00;;;;;;;;;;5028689;28;20048;-80
2022/09/14 08:23:39;;;;;;;14.80;8.98;;;;;;;14.58;100.00;68385.38;5031322;28;20271;-80
2022/09/14 08:26:07;;;;;;;13.75;8.07;;;;;;;14.58;100.00;68388.59;5028594;28;20068;-80
2022/09/14 08:28:32;;;;;;;13.27;7.80;;;;;;;14.55;100.00;68384.63;5030883;28;20037;-80
2022/09/14 08:31:02;;;;;;;12.02;6.70;;;;;;;14.53;100.00;68387.69;5031837;28;20464;-80
2022/09/14 08:33:29;;;;;;;11.32;7.50;;;;;;;14.53;100.00;68388.28;5034916;28;20164;-80
2022/09/14 08:35:55;;;;;;;11.38;6.97;;;;;;;14.66;100.00;68397.16;5030636;28;20086;-80
2022/09/14 08:38:20;;;;;;;12.32;7.28;;;;;;;;;;5030069;28;20514;-80
2022/09/14 08:40:46;;;;;;;13.93;7.45;;;;;;;14.82;100.00;68412.13;5030385;28;20041;-81
2022/09/14 08:43:12;;;;;;;12.70;6.90;;;;;;;14.81;100.00;68419.59;5028946;28;20044;-81
2022/09/14 08:45:42;;;;;;;11.85;6.88;;;;;;;14.85;100.00;68418.22;5030173;28;20045;-81
2022/09/14 08:48:16;;;;;;;9.95;7.60;;;;;;;;;;5031880;28;20377;-81
2022/09/14 08:50:41;;;;;;;11.35;8.40;;;;;;;14.99;100.00;68433.59;5031814;28;20053;-81
2022/09/14 08:53:07;;;;;;;14.52;7.75;;;;;;;;;;5031719;28;20057;-81
2022/09/14 08:55:45;;;;;;;10.63;7.65;;;;;;;;;;5029467;28;20500;-80
2022/09/14 08:58:19;;;;;;;9.75;6.30;;;;;;;;;;5030355;28;20037;-81
2022/09/14 09:00:52;;;;;;;10.25;5.40;;;;;;;15.09;100.00;68450.91;5029793;28;20041;-81
2022/09/14 09:03:28;;;;;;;9.27;4.65;;;;;;;15.04;100.00;68439.84;5028218;28;20132;-80
2022/09/14 09:06:10;;;;;;;11.95;5.22;;;;;;;15.15;100.00;68451.81;5028599;28;20379;-80
2022/09/14 09:08:48;;;;;;;11.48;5.50;;;;;;;15.05;100.00;68446.34;5029795;28;20053;-81
2022/09/14 09:11:16;;;;;;;11.63;5.95;;;;;;;;;;5031295;28;20056;-81
2022/09/14 09:13:44;;;;;;;10.00;6.20;;;;;;;15.09;100.00;68445.53;5027761;28;20045;-81
2022/09/14 09:16:11;;;;;;;9.25;6.68;;;;;;;;;;5028020;28;20107;-81
2022/09/14 09:18:39;;;;;;;10.98;6.57;;;;;;;15.21;100.00;68458.06;5029892;28;20427;-81
2022/09/14 09:21:10;;;;;;;10.20;7.27;;;;;;;15.18;100.00;68455.22;5031042;28;20053;-81
2022/09/14 09:23:36;;;;;;;10.63;7.13;;;;;;;15.20;100.00;68456.94;5028185;28;20037;-81
2022/09/14 09:26:15;;;;;;;10.30;6.28;;;;;;;;;;5027668;28;20041;-81
2022/09/14 09:28:44;;;;;;;7.65;5.18;;;;;;;;;;5029037;28;20072;-81
2022/09/14 09:31:10;;;;;;;7.85;5.00;;;;;;;;;;5028638;28;20120;-81
2022/09/14 09:33:35;;;;;;;7.72;5.15;;;;;;;;;;5030845;28;20048;-81
2022/09/14 09:36:01;;;;;;;8.10;4.50;;;;;;;;;;5029701;28;20050;-81
2022/09/14 09:38:28;;;;;;;9.68;5.30;;;;;;;15.25;100.00;68463.22;5029189;28;20045;-81
2022/09/14 09:40:56;;;;;;;9.07;4.90;;;;;;;15.29;100.00;68467.19;5028751;28;20049;-81
2022/09/14 09:43:21;;;;;;;9.60;4.50;;;;;;;;;;5030555;28;20075;-81
2022/09/14 09:45:49;;;;;;;9.32;5.03;;;;;;;;;;5031280;28;20046;-81
2022/09/14 09:48:15;;;;;;;11.27;5.65;;;;;;;;;;5031205;28;20472;-81
2022/09/14 09:51:03;;;;;;;9.63;6.32;;;;;;;15.15;100.00;68448.56;5027122;28;20038;-81
2022/09/14 09:53:28;;;;;;;8.98;6.63;;;;;;;;;;5029717;28;20104;-80
2022/09/14 09:55:55;;;;;;;9.95;6.50;;;;;;;15.27;100.00;68465.47;5031771;28;20041;-82
2022/09/14 09:58:22;;;;;;;10.20;5.85;;;;;;;;;;5032073;28;20064;-82
2022/09/14 10:00:59;;;;;;;9.68;6.38;;;;;;;15.34;100.00;68472.88;5030033;28;20041;-82
2022/09/14 10:03:37;;;;;;;12.70;7.10;;;;;;;15.38;100.00;68482.81;5026990;28;20489;-82
2022/09/14 10:06:08;;;;;;;9.38;6.60;;;;;;;15.47;100.00;68487.69;5026587;28;20471;-82
2022/09/14 10:08:38;;;;;;;12.38;7.07;;;;;;;;;;5029337;28;20511;-82
2022/09/14 10:11:03;;;;;;;11.68;6.30;;;;;;;15.47;100.00;68487.69;5031588;28;20049;-82
2022/09/14 10:13:36;;;;;;;12.98;6.45;;;;;;;15.51;100.00;68486.88;5030302;28;20052;-82
2022/09/14 10:16:07;;;;;;;10.50;5.95;;;;;;;15.50;100.00;68485.75;5024559;28;20505;-82
2022/09/14 10:18:34;;;;;;;9.80;5.95;;;;;;;;;;5029542;28;20361;-82
2022/09/14 10:21:06;;;;;;;12.68;6.55;;;;;;;15.47;100.00;68487.69;5028643;28;20041;-82
2022/09/14 10:23:36;;;;;;;8.98;5.45;;;;;;;15.45;100.00;68485.41;5029352;28;20037;-82
2022/09/14 10:26:11;;;;;;;10.93;6.05;;;;;;;;;;5029284;28;20048;-82
2022/09/14 10:28:37;;;;;;;7.53;5.85;;;;;;;15.58;100.00;68505.59;5028841;28;20042;-82
2022/09/14 10:31:16;;;;;;;10.50;5.55;;;;;;;15.55;100.00;68502.16;5028163;28;20100;-82
2022/09/14 10:33:43;;;;;;;10.18;6.18;;;;;;;15.54;100.00;68495.66;5030646;28;20041;-82
2022/09/14 10:36:11;;;;;;;9.65;5.43;;;;;;;;;;5029623;28;20500;-82
2022/09/14 10:38:42;;;;;;;15.35;5.72;;;;;;;;;;5031161;28;20049;-82
2022/09/14 10:41:14;;;;;;;8.40;5.13;;;;;;;15.61;100.00;68502.50;5032543;28;20041;-82
2022/09/14 10:44:04;;;;;;;9.57;5.30;;;;;;;15.68;100.00;68511.06;5030641;28;20065;-82
2022/09/14 10:46:39;;;;;;;10.68;5.50;;;;;;;15.63;100.00;68505.34;5018802;28;20037;-82
2022/09/14 10:49:16;;;;;;;7.97;5.75;;;;;;;;;;5013628;28;20065;-82
2022/09/14 10:51:41;;;;;;;11.18;5.30;;;;;;;;;;5020790;28;20066;-82
2022/09/14 10:54:38;;;;;;;10.43;5.53;;;;;;;15.67;100.00;68509.34;5030010;28;20072;-82
2022/09/14 10:57:26;;;;;;;8.05;5.18;;;;;;;15.67;100.00;68509.34;5031080;28;20053;-82
2022/09/14 10:59:55;;;;;;;11.70;5.20;;;;;;;15.61;100.00;68502.50;5028683;28;20037;-82
2022/09/14 11:02:29;;;;;;;;;;;;;;;15.63;100.00;68500.00;5032234;28;20041;-82
2022/09/14 11:05:22;;;;;;;10.77;5.53;;;;;;;15.54;100.00;68495.09;5019908;28;19920;-83
2022/09/14 11:08:06;;;;;;;8.77;5.20;;;;;;;15.57;100.00;68495.84;5029485;28;20042;-82
2022/09/14 11:10:44;;;;;;;7.63;4.72;;;;;;;15.62;100.00;68509.00;5031547;28;20442;-82
2022/09/14 11:13:09;;;;;;;7.72;5.45;;;;;;;;;;5019052;28;20500;-82
2022/09/14 11:15:39;;;;;;;10.63;4.97;;;;;;;15.67;100.00;68514.69;5027786;28;20029;-82
2022/09/14 11:18:17;;;;;;;9.25;5.55;;;;;;;;;;5029165;28;20306;-82
2022/09/14 11:20:43;;;;;;;8.07;5.07;;;;;;;;;;5026399;28;20046;-82
2022/09/14 11:23:32;;;;;;;9.02;5.80;;;;;;;15.68;100.00;68510.50;5025085;28;20049;-82
2022/09/14 11:26:03;;;;;;;12.45;5.72;;;;;;;15.76;100.00;68519.59;5022635;28;20049;-82
2022/09/14 11:28:48;;;;;;;11.90;5.65;;;;;;;15.83;100.00;68527.59;5033090;28;20050;-82
2022/09/14 11:31:21;;;;;;;8.85;5.32;;;;;;;15.84;100.00;68528.72;5028773;28;20559;-82
2022/09/14 11:33:53;;;;;;;8.93;5.50;;;;;;;;;;5030664;28;20045;-80
2022/09/14 11:36:27;;;;;;;8.98;5.40;;;;;;;15.82;99.85;68526.44;5030239;28;20049;-80
2022/09/14 11:38:58;;;;;;;8.02;5.22;;;;;;;15.79;100.00;68523.63;5023404;28;20046;-80
2022/09/14 11:41:51;;;;;;;7.38;5.32;;;;;;;15.87;100.00;68531.59;5028674;28;20109;-80
2022/09/14 11:44:29;;;;;;;9.32;5.55;;;;;;;;;;5029038;28;20600;-80
2022/09/14 11:47:02;;;;;;;10.43;4.90;;;;;;;15.88;98.71;68538.09;5028473;28;20057;-80
2022/09/14 11:49:41;;;;;;;8.80;4.80;;;;;;;15.86;98.76;68536.38;5032566;28;20476;-80
2022/09/14 11:52:19;;;;;;;9.15;5.43;;;;;;;;;;5031971;28;20060;-80
2022/09/14 11:54:46;;;;;;;10.95;5.78;;;;;;;15.89;99.60;68531.75;5031172;28;20057;-80
2022/09/14 11:57:19;;;;;;;7.25;4.85;;;;;;;;;;5032984;28;20038;-80
2022/09/14 11:59:49;;;;;;;8.13;5.03;;;;;;;15.95;98.83;68541.25;5033665;28;20049;-80
2022/09/14 12:02:23;;;;;;;9.57;4.55;;;;;;;15.92;97.80;68542.66;5036039;28;20045;-80
2022/09/14 12:05:08;;;;;;;9.05;4.95;;;;;;;16.01;98.69;68548.09;5031591;28;20069;-80
2022/09/14 12:07:42;;;;;;;8.68;5.20;;;;;;;16.06;99.61;68553.25;5031579;28;20051;-79
2022/09/14 12:10:28;;;;;;;8.63;5.10;;;;;;;16.09;98.75;68553.97;5025103;28;20060;-81
2022/09/14 12:13:05;;;;;;;8.40;4.97;;;;;;;16.13;98.66;68561.22;5032569;28;20335;-80
2022/09/14 12:15:34;;;;;;;12.90;5.53;;;;;;;16.19;98.55;68567.47;5028697;28;20046;-80
2022/09/14 12:18:05;;;;;;;10.93;4.97;;;;;;;16.16;98.33;68561.38;5029551;28;20038;-79
2022/09/14 12:20:40;;;;;;;7.40;5.05;;;;;;;16.18;97.88;68566.91;5034115;28;20049;-79
2022/09/14 12:23:14;;;;;;;9.10;5.15;;;;;;;16.11;96.20;68558.94;5033028;28;20120;-79
2022/09/14 12:25:52;;;;;;;13.25;5.50;;;;;;;;;;5033285;28;20041;-79
2022/09/14 12:28:29;;;;;;;7.85;5.03;;;;;;;16.16;96.63;68564.06;5017858;28;20052;-79